createdAt,value
2022-10-05T04:03:28.933Z,2.63
2022-10-05T04:07:42.646Z,2.95
2022-10-05T04:15:58.547Z,2.90
2022-10-05T04:20:07.082Z,3.05
2022-10-05T04:24:17.121Z,2.50
2022-10-05T04:28:32.232Z,2.92
2022-10-05T04:32:39.723Z,3.40
2022-10-05T04:36:55.479Z,3.38
2022-10-05T04:41:15.285Z,3.40
2022-10-05T04:45:30.367Z,2.65
2022-10-05T04:49:50.964Z,2.80
2022-10-05T04:54:01.299Z,2.85
2022-10-05T04:58:14.173Z,2.80
2022-10-05T05:02:30.114Z,2.70
2022-10-05T05:06:39.645Z,2.72
2022-10-05T05:11:13.670Z,3.30
2022-10-05T05:15:33.228Z,2.90
2022-10-05T05:19:46.257Z,2.78
2022-10-05T05:23:55.465Z,3.45
2022-10-05T05:28:07.157Z,3.65
2022-10-05T05:32:25.121Z,3.40
2022-10-05T05:36:41.896Z,3.92
2022-10-05T05:40:51.302Z,3.20
2022-10-05T05:45:01.015Z,3.45
2022-10-05T05:49:15.509Z,3.45
2022-10-05T05:53:22.209Z,3.95
2022-10-05T05:57:30.690Z,3.88
2022-10-05T06:01:44.162Z,3.58
2022-10-05T06:05:52.193Z,3.92
2022-10-05T06:10:02.863Z,4.03
2022-10-05T06:14:15.848Z,4.03
2022-10-05T06:18:22.611Z,3.95
2022-10-05T06:22:33.932Z,4.13
2022-10-05T06:27:06.312Z,3.78
2022-10-05T06:31:20.072Z,4.20
2022-10-05T06:35:44.284Z,4.10
2022-10-05T06:40:06.654Z,3.97
2022-10-05T06:44:17.057Z,4.20
2022-10-05T06:48:32.289Z,4.03
2022-10-05T06:53:19.419Z,4.00
2022-10-05T06:57:42.197Z,4.47
2022-10-05T07:01:54.500Z,4.68
2022-10-05T07:06:06.247Z,4.13
2022-10-05T07:10:20.458Z,4.10
2022-10-05T07:14:34.576Z,4.30
2022-10-05T07:23:05.678Z,4.35
2022-10-05T07:27:17.264Z,4.30
2022-10-05T07:31:28.007Z,4.07
2022-10-05T07:36:05.922Z,5.07
2022-10-05T07:40:16.016Z,4.55
2022-10-05T07:44:26.318Z,4.35
2022-10-05T07:48:36.487Z,5.47
2022-10-05T07:52:41.916Z,4.28
2022-10-05T07:56:50.980Z,4.28
2022-10-05T08:01:03.830Z,4.40
2022-10-05T08:05:15.123Z,4.65
2022-10-05T08:09:33.955Z,4.90
2022-10-05T08:13:43.367Z,4.80
2022-10-05T08:17:53.541Z,4.88
2022-10-05T08:22:04.175Z,5.00
2022-10-05T08:26:17.422Z,5.78
2022-10-05T08:30:20.547Z,5.15
2022-10-05T08:34:31.398Z,5.78
2022-10-05T08:38:34.692Z,5.78
2022-10-05T08:43:02.769Z,5.45
2022-10-05T08:47:19.622Z,5.47
2022-10-05T08:51:40.559Z,5.25
2022-10-05T08:55:56.572Z,6.20
2022-10-05T09:00:12.638Z,5.15
2022-10-05T09:04:30.911Z,5.07
2022-10-05T09:09:02.171Z,5.10
2022-10-05T09:13:31.403Z,4.80
2022-10-05T09:18:04.330Z,4.70
2022-10-05T09:22:16.011Z,4.93
2022-10-05T09:26:45.970Z,5.55
2022-10-05T09:31:12.779Z,5.20
2022-10-05T09:35:35.852Z,4.78
2022-10-05T09:40:15.548Z,5.15
2022-10-05T09:44:57.234Z,4.72
2022-10-05T09:49:24.840Z,4.70
2022-10-05T09:53:55.307Z,5.88
2022-10-05T09:58:29.362Z,5.03
2022-10-05T10:03:09.190Z,4.95
2022-10-05T10:07:45.637Z,4.63
2022-10-05T10:12:21.077Z,4.90
2022-10-05T10:16:44.894Z,4.57
2022-10-05T10:21:02.906Z,5.10
2022-10-05T10:25:35.327Z,4.20
2022-10-05T10:29:49.274Z,5.25
2022-10-05T10:34:09.205Z,4.47
2022-10-05T10:38:30.935Z,4.60
2022-10-05T10:42:40.719Z,4.80
2022-10-05T10:46:54.572Z,4.78
2022-10-05T10:51:14.703Z,4.60
2022-10-05T10:55:31.026Z,3.92
2022-10-05T11:00:22.511Z,4.13
2022-10-05T11:04:58.729Z,4.05
2022-10-05T11:09:24.446Z,3.78
2022-10-05T11:14:08.227Z,3.47
2022-10-05T11:18:26.848Z,3.70
2022-10-05T11:22:46.003Z,3.83
2022-10-05T11:27:13.162Z,3.60
2022-10-05T11:31:36.418Z,3.40
2022-10-05T11:35:59.048Z,3.50
2022-10-05T11:40:27.670Z,3.60
2022-10-05T11:45:02.977Z,3.35
2022-10-05T11:49:25.650Z,3.30
2022-10-05T11:53:34.454Z,3.42
2022-10-05T11:57:40.328Z,3.63
2022-10-05T12:01:49.527Z,3.05
2022-10-05T12:06:05.758Z,3.22
2022-10-05T12:10:23.207Z,3.15
2022-10-05T12:14:37.023Z,2.95
2022-10-05T12:18:57.442Z,3.05
2022-10-05T12:23:11.767Z,2.97
2022-10-05T12:27:17.826Z,2.72
2022-10-05T12:31:29.628Z,2.80
2022-10-05T12:35:48.361Z,2.60
2022-10-05T12:40:02.806Z,2.83
2022-10-05T12:44:18.121Z,2.67
2022-10-05T12:48:34.571Z,2.60
2022-10-05T12:52:55.909Z,2.80
2022-10-05T12:57:07.531Z,2.50
2022-10-05T13:01:22.179Z,2.50
2022-10-05T13:05:31.343Z,2.50
2022-10-05T13:09:40.953Z,2.13
2022-10-05T13:13:56.379Z,2.17
2022-10-05T13:18:13.254Z,2.50
2022-10-05T13:22:32.846Z,2.50
2022-10-05T13:26:40.289Z,2.42
2022-10-05T13:30:52.879Z,2.28
2022-10-05T13:35:03.679Z,2.50
2022-10-05T13:39:22.498Z,2.40
2022-10-05T13:43:34.299Z,2.33
2022-10-05T13:47:46.477Z,2.15
2022-10-05T13:51:56.397Z,2.03
2022-10-05T13:56:01.428Z,1.75
2022-10-05T14:00:14.745Z,1.92
2022-10-05T14:04:21.975Z,1.90
2022-10-05T14:08:28.879Z,2.10
2022-10-05T14:12:40.614Z,1.73
2022-10-05T14:16:51.974Z,1.50
2022-10-05T14:21:02.043Z,1.75
2022-10-05T14:25:17.006Z,2.10
2022-10-05T14:29:24.019Z,1.50
2022-10-05T14:33:28.904Z,1.85
2022-10-05T14:37:45.600Z,1.52
2022-10-05T14:41:50.246Z,1.40
2022-10-05T14:45:54.905Z,1.80
2022-10-05T14:50:13.854Z,1.60
2022-10-05T14:54:28.370Z,1.70
2022-10-05T14:58:44.602Z,1.50
2022-10-05T15:03:20.291Z,1.80
2022-10-05T15:07:25.953Z,1.60
2022-10-05T15:11:38.874Z,1.70
2022-10-05T15:15:48.362Z,1.70
2022-10-05T15:20:01.637Z,1.80
2022-10-05T15:28:18.387Z,1.83
2022-10-05T15:32:33.975Z,1.80
2022-10-05T15:36:44.014Z,1.40
2022-10-05T15:40:58.657Z,1.60
2022-10-05T15:45:15.866Z,1.95
2022-10-05T15:49:28.435Z,1.85
2022-10-05T15:53:38.027Z,1.90
2022-10-05T15:57:50.458Z,1.70
2022-10-05T16:02:00.783Z,2.27
2022-10-05T16:06:41.814Z,1.70
2022-10-05T16:10:45.999Z,1.90
2022-10-05T16:15:04.581Z,1.85
2022-10-05T16:19:17.448Z,1.92
2022-10-05T16:23:34.694Z,2.03
2022-10-05T16:27:50.988Z,1.95
2022-10-05T16:31:59.030Z,2.20
2022-10-05T16:36:16.814Z,2.50
2022-10-05T16:40:30.876Z,2.60
2022-10-05T16:44:40.936Z,2.50
2022-10-05T16:48:53.706Z,2.55
2022-10-05T16:53:03.290Z,2.40
2022-10-05T16:57:14.516Z,2.35
2022-10-05T17:01:31.013Z,2.20
2022-10-05T17:05:48.606Z,2.55
2022-10-05T17:10:27.142Z,2.30
2022-10-05T17:14:41.234Z,3.50
2022-10-05T17:19:21.672Z,4.07
2022-10-05T17:23:32.539Z,2.70
2022-10-05T17:27:52.125Z,2.70
2022-10-05T17:32:03.387Z,2.35
2022-10-05T17:36:18.348Z,2.50
2022-10-05T17:40:36.945Z,2.47
2022-10-05T17:44:40.907Z,2.45
2022-10-05T17:49:01.256Z,2.58
2022-10-05T17:53:39.906Z,3.28
2022-10-05T17:57:42.597Z,2.70
2022-10-05T18:02:16.419Z,2.85
2022-10-05T18:10:28.788Z,3.50
2022-10-05T18:14:55.063Z,3.38
2022-10-05T18:18:59.158Z,3.15
2022-10-05T18:23:29.937Z,3.25
2022-10-05T18:28:05.373Z,3.30
2022-10-05T18:32:19.459Z,3.33
2022-10-05T18:36:38.129Z,3.30
2022-10-05T18:40:53.007Z,3.70
2022-10-05T18:45:00.358Z,3.80
2022-10-05T18:49:16.111Z,4.30
2022-10-05T18:53:31.556Z,6.22
2022-10-05T18:57:51.380Z,4.57
2022-10-05T19:02:20.411Z,6.15
2022-10-05T19:06:27.291Z,6.97
2022-10-05T19:10:42.504Z,6.65
2022-10-05T19:14:56.375Z,6.40
2022-10-05T19:19:11.103Z,5.47
2022-10-05T19:23:29.213Z,4.28
2022-10-05T19:27:44.580Z,4.78
2022-10-05T19:31:52.734Z,4.10
2022-10-05T19:36:08.915Z,3.22
2022-10-05T19:40:22.023Z,3.90
2022-10-05T19:44:44.073Z,3.38
2022-10-05T19:48:48.923Z,3.38
2022-10-05T19:52:57.721Z,3.75
2022-10-05T19:57:02.475Z,3.90
2022-10-05T20:01:07.844Z,4.85
2022-10-05T20:05:14.527Z,3.60
2022-10-05T20:09:21.897Z,3.72
2022-10-05T20:13:24.527Z,3.25
2022-10-05T20:17:46.792Z,3.10
2022-10-05T20:21:51.330Z,2.95
2022-10-05T20:26:08.059Z,3.47
2022-10-05T20:30:13.470Z,3.53
2022-10-05T20:34:17.925Z,4.40
2022-10-05T20:38:20.643Z,3.25
2022-10-05T20:42:23.802Z,4.30
2022-10-05T20:46:26.489Z,3.90
2022-10-05T20:50:32.680Z,3.78
2022-10-05T20:54:35.350Z,4.28
2022-10-05T20:58:37.962Z,4.63
